sensor_id;sensor_type;location;lat;lon;timestamp;temperature;humidity
14357;DHT22;7262;48.764;9.166;2023-03-23T00:01:40;12.90;99.90
14357;DHT22;7262;48.764;9.166;2023-03-23T00:04:07;12.80;99.90
14357;DHT22;7262;48.764;9.166;2023-03-23T00:06:34;12.90;99.90
14357;DHT22;7262;48.764;9.166;2023-03-23T00:09:02;12.90;99.90
14357;DHT22;7262;48.764;9.166;2023-03-23T00:11:33;12.90;99.90
14357;DHT22;7262;48.764;9.166;2023-03-23T00:14:00;12.90;99.90
14357;DHT22;7262;48.764;9.166;2023-03-23T00:16:29;12.90;99.90
14357;DHT22;7262;48.764;9.166;2023-03-23T00:18:58;12.90;99.90
14357;DHT22;7262;48.764;9.166;2023-03-23T00:21:26;12.90;99.90
14357;DHT22;7262;48.764;9.166;2023-03-23T00:23:58;12.90;99.90
14357;DHT22;7262;48.764;9.166;2023-03-23T00:26:25;12.90;99.90
14357;DHT22;7262;48.764;9.166;2023-03-23T00:28:55;12.90;99.90
14357;DHT22;7262;48.764;9.166;2023-03-23T00:31:25;12.90;99.90
14357;DHT22;7262;48.764;9.166;2023-03-23T00:33:58;12.90;99.90
14357;DHT22;7262;48.764;9.166;2023-03-23T00:36:29;13.10;99.90
14357;DHT22;7262;48.764;9.166;2023-03-23T00:38:56;13.30;99.90
14357;DHT22;7262;48.764;9.166;2023-03-23T00:41:25;13.50;99.90
14357;DHT22;7262;48.764;9.166;2023-03-23T00:43:55;13.70;99.90
14357;DHT22;7262;48.764;9.166;2023-03-23T00:46:22;13.70;99.90
14357;DHT22;7262;48.764;9.166;2023-03-23T00:48:49;13.80;99.90
14357;DHT22;7262;48.764;9.166;2023-03-23T00:51:16;13.80;99.90
14357;DHT22;7262;48.764;9.166;2023-03-23T00:53:43;13.80;99.90
14357;DHT22;7262;48.764;9.166;2023-03-23T00:56:10;13.80;99.90
14357;DHT22;7262;48.764;9.166;2023-03-23T00:58:37;13.80;99.90
14357;DHT22;7262;48.764;9.166;2023-03-23T01:01:06;13.70;99.90
14357;DHT22;7262;48.764;9.166;2023-03-23T01:03:33;13.70;99.90
14357;DHT22;7262;48.764;9.166;2023-03-23T01:06:03;13.70;99.90
14357;DHT22;7262;48.764;9.166;2023-03-23T01:08:30;13.70;99.90
14357;DHT22;7262;48.764;9.166;2023-03-23T01:11:01;13.70;99.90
14357;DHT22;7262;48.764;9.166;2023-03-23T01:13:29;13.70;99.90
14357;DHT22;7262;48.764;9.166;2023-03-23T01:15:55;13.60;99.90
14357;DHT22;7262;48.764;9.166;2023-03-23T01:18:24;13.60;99.90
14357;DHT22;7262;48.764;9.166;2023-03-23T01:20:51;13.60;99.90
14357;DHT22;7262;48.764;9.166;2023-03-23T01:23:18;13.60;99.90
14357;DHT22;7262;48.764;9.166;2023-03-23T01:25:45;13.50;99.90
14357;DHT22;7262;48.764;9.166;2023-03-23T01:28:12;13.60;99.90
14357;DHT22;7262;48.764;9.166;2023-03-23T01:30:38;13.50;99.90
14357;DHT22;7262;48.764;9.166;2023-03-23T01:33:05;13.50;99.90
14357;DHT22;7262;48.764;9.166;2023-03-23T01:35:36;13.50;99.90
14357;DHT22;7262;48.764;9.166;2023-03-23T01:38:04;13.50;99.90
14357;DHT22;7262;48.764;9.166;2023-03-23T01:40:30;13.50;99.90
14357;DHT22;7262;48.764;9.166;2023-03-23T01:42:57;13.50;99.90
14357;DHT22;7262;48.764;9.166;2023-03-23T01:45:26;13.50;99.90
14357;DHT22;7262;48.764;9.166;2023-03-23T01:47:59;13.50;99.90
14357;DHT22;7262;48.764;9.166;2023-03-23T01:50:28;13.50;99.90
14357;DHT22;7262;48.764;9.166;2023-03-23T01:52:57;13.50;99.90
14357;DHT22;7262;48.764;9.166;2023-03-23T01:55:25;13.40;99.90
14357;DHT22;7262;48.764;9.166;2023-03-23T01:57:53;13.40;99.90
14357;DHT22;7262;48.764;9.166;2023-03-23T02:00:24;13.40;99.90
14357;DHT22;7262;48.764;9.166;2023-03-23T02:02:51;13.40;99.90
14357;DHT22;7262;48.764;9.166;2023-03-23T02:05:21;13.40;99.90
14357;DHT22;7262;48.764;9.166;2023-03-23T02:07:50;13.30;99.90
14357;DHT22;7262;48.764;9.166;2023-03-23T02:10:20;13.40;99.90
14357;DHT22;7262;48.764;9.166;2023-03-23T02:12:46;13.40;99.90
14357;DHT22;7262;48.764;9.166;2023-03-23T02:15:13;13.40;99.90
14357;DHT22;7262;48.764;9.166;2023-03-23T02:17:41;13.30;99.90
14357;DHT22;7262;48.764;9.166;2023-03-23T02:23:07;13.20;99.90
14357;DHT22;7262;48.764;9.166;2023-03-23T02:25:43;13.20;99.90
14357;DHT22;7262;48.764;9.166;2023-03-23T02:28:19;13.20;99.90
14357;DHT22;7262;48.764;9.166;2023-03-23T02:33:40;13.20;99.90
14357;DHT22;7262;48.764;9.166;2023-03-23T02:36:12;13.20;99.90
14357;DHT22;7262;48.764;9.166;2023-03-23T02:38:41;13.20;99.90
14357;DHT22;7262;48.764;9.166;2023-03-23T02:41:09;13.20;99.90
14357;DHT22;7262;48.764;9.166;2023-03-23T02:43:40;13.20;99.90
14357;DHT22;7262;48.764;9.166;2023-03-23T02:46:07;13.20;99.90
14357;DHT22;7262;48.764;9.166;2023-03-23T02:48:35;13.10;99.90
14357;DHT22;7262;48.764;9.166;2023-03-23T02:51:04;13.10;99.90
14357;DHT22;7262;48.764;9.166;2023-03-23T02:53:32;13.10;99.90
14357;DHT22;7262;48.764;9.166;2023-03-23T02:56:00;13.10;99.90
14357;DHT22;7262;48.764;9.166;2023-03-23T02:58:28;13.10;99.90
14357;DHT22;7262;48.764;9.166;2023-03-23T03:00:55;13.00;99.90
14357;DHT22;7262;48.764;9.166;2023-03-23T03:03:25;13.00;99.90
14357;DHT22;7262;48.764;9.166;2023-03-23T03:05:54;13.00;99.90
14357;DHT22;7262;48.764;9.166;2023-03-23T03:08:26;13.00;99.90
14357;DHT22;7262;48.764;9.166;2023-03-23T03:10:55;13.00;99.90
14357;DHT22;7262;48.764;9.166;2023-03-23T03:13:29;13.00;99.90
14357;DHT22;7262;48.764;9.166;2023-03-23T03:15:59;13.00;99.90
14357;DHT22;7262;48.764;9.166;2023-03-23T03:18:27;12.90;99.90
14357;DHT22;7262;48.764;9.166;2023-03-23T03:20:57;12.90;99.90
14357;DHT22;7262;48.764;9.166;2023-03-23T03:23:27;12.90;99.90
14357;DHT22;7262;48.764;9.166;2023-03-23T03:25:55;12.90;99.90
14357;DHT22;7262;48.764;9.166;2023-03-23T03:28:23;12.90;99.90
14357;DHT22;7262;48.764;9.166;2023-03-23T03:30:53;12.90;99.90
14357;DHT22;7262;48.764;9.166;2023-03-23T03:33:20;12.90;99.90
14357;DHT22;7262;48.764;9.166;2023-03-23T03:35:51;12.90;99.90
14357;DHT22;7262;48.764;9.166;2023-03-23T03:38:18;12.90;99.90
14357;DHT22;7262;48.764;9.166;2023-03-23T03:40:46;13.00;99.90
14357;DHT22;7262;48.764;9.166;2023-03-23T03:43:13;13.00;99.90
14357;DHT22;7262;48.764;9.166;2023-03-23T03:45:40;13.10;99.90
14357;DHT22;7262;48.764;9.166;2023-03-23T03:48:07;13.10;99.90
14357;DHT22;7262;48.764;9.166;2023-03-23T03:50:34;13.10;99.90
14357;DHT22;7262;48.764;9.166;2023-03-23T03:53:01;13.10;99.90
14357;DHT22;7262;48.764;9.166;2023-03-23T03:55:28;13.20;99.90
14357;DHT22;7262;48.764;9.166;2023-03-23T03:58:02;13.30;99.90
14357;DHT22;7262;48.764;9.166;2023-03-23T04:00:29;13.20;99.90
14357;DHT22;7262;48.764;9.166;2023-03-23T04:02:59;13.20;99.90
14357;DHT22;7262;48.764;9.166;2023-03-23T04:05:26;13.20;99.90
14357;DHT22;7262;48.764;9.166;2023-03-23T04:07:55;13.20;99.90
14357;DHT22;7262;48.764;9.166;2023-03-23T04:10:27;13.20;99.90
14357;DHT22;7262;48.764;9.166;2023-03-23T04:12:54;13.20;99.90
14357;DHT22;7262;48.764;9.166;2023-03-23T04:15:22;13.20;99.90
14357;DHT22;7262;48.764;9.166;2023-03-23T04:17:49;13.10;99.90
14357;DHT22;7262;48.764;9.166;2023-03-23T04:20:16;13.20;99.90
14357;DHT22;7262;48.764;9.166;2023-03-23T04:22:43;13.20;99.90
14357;DHT22;7262;48.764;9.166;2023-03-23T04:25:15;13.30;99.90
14357;DHT22;7262;48.764;9.166;2023-03-23T04:27:42;13.20;99.90
14357;DHT22;7262;48.764;9.166;2023-03-23T04:30:12;13.30;99.90
14357;DHT22;7262;48.764;9.166;2023-03-23T04:32:40;13.30;99.90
14357;DHT22;7262;48.764;9.166;2023-03-23T04:35:08;13.30;99.90
14357;DHT22;7262;48.764;9.166;2023-03-23T04:37:36;13.30;99.90
14357;DHT22;7262;48.764;9.166;2023-03-23T04:40:04;13.30;99.90
14357;DHT22;7262;48.764;9.166;2023-03-23T04:42:36;13.40;99.90
14357;DHT22;7262;48.764;9.166;2023-03-23T04:45:04;13.40;99.90
14357;DHT22;7262;48.764;9.166;2023-03-23T04:47:32;13.40;99.90
14357;DHT22;7262;48.764;9.166;2023-03-23T04:50:01;13.40;99.90
14357;DHT22;7262;48.764;9.166;2023-03-23T04:52:28;13.50;99.90
14357;DHT22;7262;48.764;9.166;2023-03-23T04:54:55;13.60;99.90
14357;DHT22;7262;48.764;9.166;2023-03-23T04:57:22;13.70;99.90
14357;DHT22;7262;48.764;9.166;2023-03-23T04:59:48;13.70;99.90
14357;DHT22;7262;48.764;9.166;2023-03-23T05:02:16;13.60;99.90
14357;DHT22;7262;48.764;9.166;2023-03-23T05:04:43;13.50;99.90
14357;DHT22;7262;48.764;9.166;2023-03-23T05:07:13;13.50;99.90
14357;DHT22;7262;48.764;9.166;2023-03-23T05:09:40;13.40;99.90
14357;DHT22;7262;48.764;9.166;2023-03-23T05:12:08;13.50;99.90
14357;DHT22;7262;48.764;9.166;2023-03-23T05:14:40;13.40;99.90
14357;DHT22;7262;48.764;9.166;2023-03-23T05:17:07;13.40;99.90
14357;DHT22;7262;48.764;9.166;2023-03-23T05:19:34;13.40;99.90
14357;DHT22;7262;48.764;9.166;2023-03-23T05:22:01;13.30;99.90
14357;DHT22;7262;48.764;9.166;2023-03-23T05:24:31;13.30;99.90
14357;DHT22;7262;48.764;9.166;2023-03-23T05:26:58;13.50;99.90
14357;DHT22;7262;48.764;9.166;2023-03-23T05:29:25;13.30;99.90
14357;DHT22;7262;48.764;9.166;2023-03-23T05:31:55;13.30;99.90
14357;DHT22;7262;48.764;9.166;2023-03-23T05:34:25;13.30;99.90
14357;DHT22;7262;48.764;9.166;2023-03-23T05:36:52;13.30;99.90
14357;DHT22;7262;48.764;9.166;2023-03-23T05:39:20;13.30;99.90
14357;DHT22;7262;48.764;9.166;2023-03-23T05:41:49;13.30;99.90
14357;DHT22;7262;48.764;9.166;2023-03-23T05:44:16;13.30;99.90
14357;DHT22;7262;48.764;9.166;2023-03-23T05:46:43;13.30;99.90
14357;DHT22;7262;48.764;9.166;2023-03-23T05:49:13;13.30;99.90
14357;DHT22;7262;48.764;9.166;2023-03-23T05:51:41;13.40;99.90
14357;DHT22;7262;48.764;9.166;2023-03-23T05:54:08;13.40;99.90
14357;DHT22;7262;48.764;9.166;2023-03-23T05:56:36;13.50;99.90
14357;DHT22;7262;48.764;9.166;2023-03-23T05:59:04;13.50;99.90
14357;DHT22;7262;48.764;9.166;2023-03-23T06:01:31;13.60;99.90
14357;DHT22;7262;48.764;9.166;2023-03-23T06:03:59;13.70;99.90
14357;DHT22;7262;48.764;9.166;2023-03-23T06:06:26;13.70;99.90
14357;DHT22;7262;48.764;9.166;2023-03-23T06:08:54;13.70;99.90
14357;DHT22;7262;48.764;9.166;2023-03-23T06:11:22;13.80;99.90
14357;DHT22;7262;48.764;9.166;2023-03-23T06:13:51;13.80;99.90
14357;DHT22;7262;48.764;9.166;2023-03-23T06:16:19;13.90;99.90
14357;DHT22;7262;48.764;9.166;2023-03-23T06:18:46;13.90;99.90
14357;DHT22;7262;48.764;9.166;2023-03-23T06:21:15;13.90;99.90
14357;DHT22;7262;48.764;9.166;2023-03-23T06:23:43;13.90;99.90
14357;DHT22;7262;48.764;9.166;2023-03-23T06:26:11;14.00;99.90
14357;DHT22;7262;48.764;9.166;2023-03-23T06:28:41;13.90;99.90
14357;DHT22;7262;48.764;9.166;2023-03-23T06:31:08;13.90;99.90
14357;DHT22;7262;48.764;9.166;2023-03-23T06:33:37;14.00;99.90
14357;DHT22;7262;48.764;9.166;2023-03-23T06:36:05;14.00;99.90
14357;DHT22;7262;48.764;9.166;2023-03-23T06:38:31;13.90;99.90
14357;DHT22;7262;48.764;9.166;2023-03-23T06:40:59;13.80;99.90
14357;DHT22;7262;48.764;9.166;2023-03-23T06:43:27;13.80;99.90
14357;DHT22;7262;48.764;9.166;2023-03-23T06:45:54;13.90;99.90
14357;DHT22;7262;48.764;9.166;2023-03-23T06:48:21;13.80;99.90
14357;DHT22;7262;48.764;9.166;2023-03-23T06:50:50;13.80;99.90
14357;DHT22;7262;48.764;9.166;2023-03-23T06:53:17;13.80;99.90
14357;DHT22;7262;48.764;9.166;2023-03-23T06:55:45;13.90;99.90
14357;DHT22;7262;48.764;9.166;2023-03-23T06:58:13;14.10;99.90
14357;DHT22;7262;48.764;9.166;2023-03-23T07:00:40;14.20;99.90
14357;DHT22;7262;48.764;9.166;2023-03-23T07:03:07;14.40;99.90
14357;DHT22;7262;48.764;9.166;2023-03-23T07:05:34;14.60;99.90
14357;DHT22;7262;48.764;9.166;2023-03-23T07:08:03;14.70;99.90
14357;DHT22;7262;48.764;9.166;2023-03-23T07:10:31;14.90;99.90
14357;DHT22;7262;48.764;9.166;2023-03-23T07:12:58;14.90;99.90
14357;DHT22;7262;48.764;9.166;2023-03-23T07:15:26;15.00;99.90
14357;DHT22;7262;48.764;9.166;2023-03-23T07:17:52;14.90;99.90
14357;DHT22;7262;48.764;9.166;2023-03-23T07:20:20;14.90;99.90
14357;DHT22;7262;48.764;9.166;2023-03-23T07:22:47;14.80;99.90
14357;DHT22;7262;48.764;9.166;2023-03-23T08:42:57;16.50;99.90
14357;DHT22;7262;48.764;9.166;2023-03-23T09:24:16;16.90;99.90
14357;DHT22;7262;48.764;9.166;2023-03-23T09:26:42;17.00;99.90
14357;DHT22;7262;48.764;9.166;2023-03-23T09:29:10;17.10;99.90
14357;DHT22;7262;48.764;9.166;2023-03-23T09:31:38;17.20;99.90
14357;DHT22;7262;48.764;9.166;2023-03-23T09:34:05;17.30;99.90
14357;DHT22;7262;48.764;9.166;2023-03-23T09:36:35;17.20;99.90
14357;DHT22;7262;48.764;9.166;2023-03-23T09:39:01;17.00;99.90
14357;DHT22;7262;48.764;9.166;2023-03-23T09:41:44;17.00;99.90
14357;DHT22;7262;48.764;9.166;2023-03-23T09:44:16;16.80;99.90
14357;DHT22;7262;48.764;9.166;2023-03-23T09:46:48;16.70;99.90
14357;DHT22;7262;48.764;9.166;2023-03-23T09:49:17;16.80;99.90
14357;DHT22;7262;48.764;9.166;2023-03-23T09:51:46;16.70;99.90
14357;DHT22;7262;48.764;9.166;2023-03-23T09:54:17;16.70;99.90
14357;DHT22;7262;48.764;9.166;2023-03-23T09:56:48;16.70;99.90
14357;DHT22;7262;48.764;9.166;2023-03-23T09:59:19;16.90;99.90
14357;DHT22;7262;48.764;9.166;2023-03-23T10:01:48;17.00;99.90
14357;DHT22;7262;48.764;9.166;2023-03-23T10:04:19;17.10;99.90
14357;DHT22;7262;48.764;9.166;2023-03-23T10:06:50;17.20;99.90
14357;DHT22;7262;48.764;9.166;2023-03-23T10:09:17;17.40;99.90
14357;DHT22;7262;48.764;9.166;2023-03-23T10:11:49;17.60;99.90
14357;DHT22;7262;48.764;9.166;2023-03-23T10:14:21;17.60;99.90
14357;DHT22;7262;48.764;9.166;2023-03-23T10:16:54;17.80;99.90
14357;DHT22;7262;48.764;9.166;2023-03-23T10:19:25;17.90;99.90
14357;DHT22;7262;48.764;9.166;2023-03-23T10:21:56;18.20;99.90
14357;DHT22;7262;48.764;9.166;2023-03-23T10:24:29;18.50;99.90
14357;DHT22;7262;48.764;9.166;2023-03-23T10:27:01;18.90;99.90
14357;DHT22;7262;48.764;9.166;2023-03-23T10:29:31;18.80;99.90
14357;DHT22;7262;48.764;9.166;2023-03-23T10:32:01;18.70;99.90
14357;DHT22;7262;48.764;9.166;2023-03-23T10:34:31;18.50;99.90
14357;DHT22;7262;48.764;9.166;2023-03-23T10:37:01;18.30;99.90
14357;DHT22;7262;48.764;9.166;2023-03-23T10:39:31;17.90;99.90
14357;DHT22;7262;48.764;9.166;2023-03-23T10:42:01;17.70;99.90
14357;DHT22;7262;48.764;9.166;2023-03-23T10:44:32;17.70;99.90
14357;DHT22;7262;48.764;9.166;2023-03-23T10:47:00;17.50;99.90
14357;DHT22;7262;48.764;9.166;2023-03-23T10:49:30;17.70;99.90
14357;DHT22;7262;48.764;9.166;2023-03-23T10:52:00;18.00;99.90
14357;DHT22;7262;48.764;9.166;2023-03-23T10:54:32;18.00;99.90
14357;DHT22;7262;48.764;9.166;2023-03-23T10:57:01;17.90;99.90
14357;DHT22;7262;48.764;9.166;2023-03-23T10:59:39;18.00;99.90
14357;DHT22;7262;48.764;9.166;2023-03-23T11:02:08;18.40;99.90
14357;DHT22;7262;48.764;9.166;2023-03-23T11:04:38;18.70;99.90
14357;DHT22;7262;48.764;9.166;2023-03-23T11:07:05;18.80;99.90
14357;DHT22;7262;48.764;9.166;2023-03-23T11:38:15;18.00;99.90
14357;DHT22;7262;48.764;9.166;2023-03-23T11:40:44;18.00;99.90
14357;DHT22;7262;48.764;9.166;2023-03-23T11:43:14;18.20;99.90
14357;DHT22;7262;48.764;9.166;2023-03-23T11:45:50;18.40;99.90
14357;DHT22;7262;48.764;9.166;2023-03-23T11:48:25;18.80;99.90
14357;DHT22;7262;48.764;9.166;2023-03-23T11:50:55;19.30;99.90
14357;DHT22;7262;48.764;9.166;2023-03-23T11:53:30;19.60;99.90
14357;DHT22;7262;48.764;9.166;2023-03-23T11:56:03;19.10;99.90
14357;DHT22;7262;48.764;9.166;2023-03-23T11:58:31;19.00;99.90
14357;DHT22;7262;48.764;9.166;2023-03-23T12:01:02;19.10;99.90
14357;DHT22;7262;48.764;9.166;2023-03-23T12:03:38;19.20;99.90
14357;DHT22;7262;48.764;9.166;2023-03-23T12:06:11;19.30;99.90
14357;DHT22;7262;48.764;9.166;2023-03-23T12:08:45;19.10;99.90
14357;DHT22;7262;48.764;9.166;2023-03-23T12:11:23;19.00;99.90
14357;DHT22;7262;48.764;9.166;2023-03-23T12:13:57;18.90;99.90
14357;DHT22;7262;48.764;9.166;2023-03-23T12:16:29;18.80;99.90
14357;DHT22;7262;48.764;9.166;2023-03-23T12:19:01;18.70;99.90
14357;DHT22;7262;48.764;9.166;2023-03-23T12:21:32;18.60;99.90
14357;DHT22;7262;48.764;9.166;2023-03-23T12:24:08;18.70;99.90
14357;DHT22;7262;48.764;9.166;2023-03-23T12:26:39;19.00;99.90
14357;DHT22;7262;48.764;9.166;2023-03-23T12:29:19;18.90;99.90
14357;DHT22;7262;48.764;9.166;2023-03-23T12:31:52;18.90;99.90
14357;DHT22;7262;48.764;9.166;2023-03-23T12:34:26;18.80;99.90
14357;DHT22;7262;48.764;9.166;2023-03-23T12:37:01;18.70;99.90
14357;DHT22;7262;48.764;9.166;2023-03-23T12:42:21;18.40;99.90
14357;DHT22;7262;48.764;9.166;2023-03-23T12:44:52;18.80;99.90
14357;DHT22;7262;48.764;9.166;2023-03-23T12:50:11;19.50;99.90
14357;DHT22;7262;48.764;9.166;2023-03-23T12:52:42;19.90;99.90
14357;DHT22;7262;48.764;9.166;2023-03-23T12:55:14;19.70;99.90
14357;DHT22;7262;48.764;9.166;2023-03-23T12:57:45;19.50;99.90
14357;DHT22;7262;48.764;9.166;2023-03-23T13:00:16;19.00;99.90
14357;DHT22;7262;48.764;9.166;2023-03-23T13:02:46;18.90;99.90
14357;DHT22;7262;48.764;9.166;2023-03-23T13:05:25;18.80;99.90
14357;DHT22;7262;48.764;9.166;2023-03-23T13:07:54;18.80;99.90
14357;DHT22;7262;48.764;9.166;2023-03-23T13:10:23;18.70;99.90
14357;DHT22;7262;48.764;9.166;2023-03-23T13:12:53;18.70;99.90
14357;DHT22;7262;48.764;9.166;2023-03-23T13:15:24;18.50;99.90
14357;DHT22;7262;48.764;9.166;2023-03-23T13:17:54;18.50;99.90
14357;DHT22;7262;48.764;9.166;2023-03-23T13:20:38;18.70;99.90
14357;DHT22;7262;48.764;9.166;2023-03-23T13:23:11;18.80;99.90
14357;DHT22;7262;48.764;9.166;2023-03-23T13:25:46;19.10;99.90
14357;DHT22;7262;48.764;9.166;2023-03-23T13:28:18;19.20;99.90
14357;DHT22;7262;48.764;9.166;2023-03-23T13:30:55;19.40;99.90
14357;DHT22;7262;48.764;9.166;2023-03-23T13:33:25;19.50;99.90
14357;DHT22;7262;48.764;9.166;2023-03-23T13:35:55;19.60;99.90
14357;DHT22;7262;48.764;9.166;2023-03-23T13:38:23;20.00;99.90
14357;DHT22;7262;48.764;9.166;2023-03-23T13:40:50;20.00;99.90
14357;DHT22;7262;48.764;9.166;2023-03-23T13:43:27;19.90;99.90
14357;DHT22;7262;48.764;9.166;2023-03-23T13:45:54;19.80;99.90
14357;DHT22;7262;48.764;9.166;2023-03-23T13:48:23;19.30;99.90
14357;DHT22;7262;48.764;9.166;2023-03-23T13:50:52;19.10;99.90
14357;DHT22;7262;48.764;9.166;2023-03-23T13:53:24;19.00;99.90
14357;DHT22;7262;48.764;9.166;2023-03-23T13:56:04;19.10;99.90
14357;DHT22;7262;48.764;9.166;2023-03-23T13:58:43;19.00;99.90
14357;DHT22;7262;48.764;9.166;2023-03-23T14:01:12;19.10;99.90
14357;DHT22;7262;48.764;9.166;2023-03-23T14:03:42;19.00;99.90
14357;DHT22;7262;48.764;9.166;2023-03-23T14:06:12;18.60;99.90
14357;DHT22;7262;48.764;9.166;2023-03-23T14:08:40;18.40;99.90
14357;DHT22;7262;48.764;9.166;2023-03-23T14:11:13;18.50;99.90
14357;DHT22;7262;48.764;9.166;2023-03-23T14:13:44;18.40;99.90
14357;DHT22;7262;48.764;9.166;2023-03-23T14:16:16;18.60;99.90
14357;DHT22;7262;48.764;9.166;2023-03-23T14:18:48;18.60;99.90
14357;DHT22;7262;48.764;9.166;2023-03-23T14:21:21;18.70;99.90
14357;DHT22;7262;48.764;9.166;2023-03-23T14:23:49;18.50;99.90
14357;DHT22;7262;48.764;9.166;2023-03-23T14:26:16;18.80;99.90
14357;DHT22;7262;48.764;9.166;2023-03-23T14:28:49;18.70;99.90
14357;DHT22;7262;48.764;9.166;2023-03-23T15:10:09;18.40;99.90
14357;DHT22;7262;48.764;9.166;2023-03-23T16:04:23;17.80;99.90
14357;DHT22;7262;48.764;9.166;2023-03-23T16:06:51;17.80;99.90
14357;DHT22;7262;48.764;9.166;2023-03-23T16:09:19;17.70;99.90
14357;DHT22;7262;48.764;9.166;2023-03-23T16:11:46;17.70;99.90
14357;DHT22;7262;48.764;9.166;2023-03-23T16:14:12;17.60;99.90
14357;DHT22;7262;48.764;9.166;2023-03-23T16:16:40;17.60;99.90
14357;DHT22;7262;48.764;9.166;2023-03-23T16:19:08;17.50;99.90
14357;DHT22;7262;48.764;9.166;2023-03-23T16:21:39;17.50;99.90
14357;DHT22;7262;48.764;9.166;2023-03-23T16:29:21;17.30;99.90
14357;DHT22;7262;48.764;9.166;2023-03-23T16:31:48;17.40;99.90
14357;DHT22;7262;48.764;9.166;2023-03-23T16:34:15;17.40;99.90
14357;DHT22;7262;48.764;9.166;2023-03-23T16:36:44;17.40;99.90
14357;DHT22;7262;48.764;9.166;2023-03-23T16:39:13;17.30;99.90
14357;DHT22;7262;48.764;9.166;2023-03-23T16:41:43;17.30;99.90
14357;DHT22;7262;48.764;9.166;2023-03-23T16:44:10;17.20;99.90
14357;DHT22;7262;48.764;9.166;2023-03-23T16:46:38;17.20;99.90
14357;DHT22;7262;48.764;9.166;2023-03-23T16:49:06;17.20;99.90
14357;DHT22;7262;48.764;9.166;2023-03-23T16:51:36;17.20;99.90
14357;DHT22;7262;48.764;9.166;2023-03-23T18:53:00;16.20;99.90
14357;DHT22;7262;48.764;9.166;2023-03-23T18:55:27;16.10;99.90
14357;DHT22;7262;48.764;9.166;2023-03-23T18:57:54;16.10;99.90
14357;DHT22;7262;48.764;9.166;2023-03-23T19:00:22;16.10;99.90
14357;DHT22;7262;48.764;9.166;2023-03-23T19:02:49;16.00;99.90
14357;DHT22;7262;48.764;9.166;2023-03-23T19:05:16;15.90;99.90
14357;DHT22;7262;48.764;9.166;2023-03-23T19:07:42;15.90;99.90
14357;DHT22;7262;48.764;9.166;2023-03-23T19:10:11;15.90;99.90
14357;DHT22;7262;48.764;9.166;2023-03-23T19:12:38;15.90;99.90
14357;DHT22;7262;48.764;9.166;2023-03-23T19:15:06;15.80;99.90
14357;DHT22;7262;48.764;9.166;2023-03-23T19:17:35;15.80;99.90
14357;DHT22;7262;48.764;9.166;2023-03-23T19:20:03;15.80;99.90
14357;DHT22;7262;48.764;9.166;2023-03-23T19:22:34;15.90;99.90
14357;DHT22;7262;48.764;9.166;2023-03-23T19:25:01;15.90;99.90
14357;DHT22;7262;48.764;9.166;2023-03-23T19:27:29;15.90;99.90
14357;DHT22;7262;48.764;9.166;2023-03-23T19:29:59;15.90;99.90
14357;DHT22;7262;48.764;9.166;2023-03-23T19:32:26;16.00;99.90
14357;DHT22;7262;48.764;9.166;2023-03-23T19:34:53;16.00;99.90
14357;DHT22;7262;48.764;9.166;2023-03-23T19:37:20;15.90;99.90
14357;DHT22;7262;48.764;9.166;2023-03-23T19:39:47;15.90;99.90
14357;DHT22;7262;48.764;9.166;2023-03-23T19:42:14;16.00;99.90
14357;DHT22;7262;48.764;9.166;2023-03-23T19:44:49;15.90;99.90
14357;DHT22;7262;48.764;9.166;2023-03-23T19:47:26;15.90;99.90
14357;DHT22;7262;48.764;9.166;2023-03-23T19:49:53;15.90;99.90
14357;DHT22;7262;48.764;9.166;2023-03-23T19:52:21;15.80;99.90
14357;DHT22;7262;48.764;9.166;2023-03-23T19:54:47;15.80;99.90
14357;DHT22;7262;48.764;9.166;2023-03-23T19:57:15;15.80;99.90
14357;DHT22;7262;48.764;9.166;2023-03-23T19:59:42;15.80;99.90
14357;DHT22;7262;48.764;9.166;2023-03-23T20:02:11;15.70;99.90
14357;DHT22;7262;48.764;9.166;2023-03-23T20:04:38;15.70;99.90
14357;DHT22;7262;48.764;9.166;2023-03-23T20:07:05;15.70;99.90
14357;DHT22;7262;48.764;9.166;2023-03-23T20:09:33;15.70;99.90
14357;DHT22;7262;48.764;9.166;2023-03-23T20:12:00;15.70;99.90
14357;DHT22;7262;48.764;9.166;2023-03-23T20:14:28;15.70;99.90
14357;DHT22;7262;48.764;9.166;2023-03-23T20:16:55;15.60;99.90
14357;DHT22;7262;48.764;9.166;2023-03-23T20:19:23;15.60;99.90
14357;DHT22;7262;48.764;9.166;2023-03-23T20:21:50;15.50;99.90
14357;DHT22;7262;48.764;9.166;2023-03-23T20:24:17;15.60;99.90
14357;DHT22;7262;48.764;9.166;2023-03-23T20:26:44;15.50;99.90
14357;DHT22;7262;48.764;9.166;2023-03-23T20:29:11;15.50;99.90
14357;DHT22;7262;48.764;9.166;2023-03-23T20:31:39;15.40;99.90
14357;DHT22;7262;48.764;9.166;2023-03-23T20:34:07;15.40;99.90
14357;DHT22;7262;48.764;9.166;2023-03-23T20:36:36;15.40;99.90
14357;DHT22;7262;48.764;9.166;2023-03-23T20:39:05;15.30;99.90
14357;DHT22;7262;48.764;9.166;2023-03-23T20:41:39;15.30;99.90
14357;DHT22;7262;48.764;9.166;2023-03-23T20:44:08;15.30;99.90
14357;DHT22;7262;48.764;9.166;2023-03-23T20:46:41;15.10;99.90
14357;DHT22;7262;48.764;9.166;2023-03-23T20:49:09;15.20;99.90
14357;DHT22;7262;48.764;9.166;2023-03-23T20:51:37;15.20;99.90
14357;DHT22;7262;48.764;9.166;2023-03-23T20:54:04;15.20;99.90
14357;DHT22;7262;48.764;9.166;2023-03-23T20:56:31;15.10;99.90
14357;DHT22;7262;48.764;9.166;2023-03-23T20:58:58;15.10;99.90
14357;DHT22;7262;48.764;9.166;2023-03-23T21:01:26;15.00;99.90
14357;DHT22;7262;48.764;9.166;2023-03-23T21:03:57;15.20;99.90
14357;DHT22;7262;48.764;9.166;2023-03-23T21:06:24;15.00;99.90
14357;DHT22;7262;48.764;9.166;2023-03-23T21:08:54;15.00;99.90
14357;DHT22;7262;48.764;9.166;2023-03-23T21:11:22;15.00;99.90
14357;DHT22;7262;48.764;9.166;2023-03-23T21:13:49;14.90;99.90
14357;DHT22;7262;48.764;9.166;2023-03-23T21:16:16;14.80;99.90
14357;DHT22;7262;48.764;9.166;2023-03-23T21:18:44;14.80;99.90
14357;DHT22;7262;48.764;9.166;2023-03-23T21:21:11;14.70;99.90
14357;DHT22;7262;48.764;9.166;2023-03-23T21:23:39;14.60;99.90
14357;DHT22;7262;48.764;9.166;2023-03-23T21:26:12;14.60;99.90
14357;DHT22;7262;48.764;9.166;2023-03-23T21:28:41;14.60;99.90
14357;DHT22;7262;48.764;9.166;2023-03-23T21:31:09;14.60;99.90
14357;DHT22;7262;48.764;9.166;2023-03-23T21:33:36;14.50;99.90
14357;DHT22;7262;48.764;9.166;2023-03-23T21:36:03;14.50;99.90
14357;DHT22;7262;48.764;9.166;2023-03-23T21:38:32;14.50;99.90
14357;DHT22;7262;48.764;9.166;2023-03-23T21:41:04;14.40;99.90
14357;DHT22;7262;48.764;9.166;2023-03-23T21:43:32;14.50;99.90
14357;DHT22;7262;48.764;9.166;2023-03-23T21:45:59;14.40;99.90
14357;DHT22;7262;48.764;9.166;2023-03-23T21:48:29;14.40;99.90
14357;DHT22;7262;48.764;9.166;2023-03-23T21:51:02;14.30;99.90
14357;DHT22;7262;48.764;9.166;2023-03-23T21:53:29;14.40;99.90
14357;DHT22;7262;48.764;9.166;2023-03-23T21:55:58;14.30;99.90
14357;DHT22;7262;48.764;9.166;2023-03-23T21:58:25;14.20;99.90
14357;DHT22;7262;48.764;9.166;2023-03-23T22:00:54;14.20;99.90
14357;DHT22;7262;48.764;9.166;2023-03-23T22:03:23;14.20;99.90
14357;DHT22;7262;48.764;9.166;2023-03-23T22:05:52;14.10;99.90
14357;DHT22;7262;48.764;9.166;2023-03-23T22:08:19;14.10;99.90